Time;durP1;ratioP1;P1;durP2;ratioP2;P2;SDS_P1;SDS_P2;PMS_P1;PMS_P2;Temp;Humidity;BMP_temperature;BMP_pressure;BME280_temperature;BME280_humidity;BME280_pressure;Samples;Min_cycle;Max_cycle;Signal;HPM_P1;HPM_P2
2021/10/22 00:01:12;;;;;;;6.15;3.05;;;;;;;12.85;61.14;97681.22;4838405;29;20088;-77
2021/10/22 00:03:38;;;;;;;3.33;2.67;;;;;;;12.93;60.96;97710.06;4792746;29;20056;-77
2021/10/22 00:06:04;;;;;;;2.05;1.92;;;;;;;13.00;60.22;97688.34;4838993;29;20061;-78
2021/10/22 00:08:30;;;;;;;2.65;2.55;;;;;;;12.98;60.51;97681.63;4842425;29;20050;-74
2021/10/22 00:10:56;;;;;;;3.53;3.33;;;;;;;12.95;60.47;97676.72;4842686;29;20064;-74
2021/10/22 00:13:23;;;;;;;11.70;2.53;;;;;;;12.96;60.68;97694.03;4824683;29;20132;-75
2021/10/22 00:15:49;;;;;;;2.72;2.63;;;;;;;12.95;60.42;97680.16;4824226;29;20054;-75
2021/10/22 00:57:18;;;;;;;2.90;2.80;;;;;;;13.09;59.84;97688.47;4839743;29;20149;-77
2021/10/22 00:59:45;;;;;;;1.63;1.58;;;;;;;12.98;60.53;97702.59;4842018;29;20057;-77
2021/10/22 01:02:13;;;;;;;3.20;3.00;;;;;;;13.03;60.24;97685.44;4810250;29;20118;-77
2021/10/22 01:04:39;;;;;;;2.60;2.50;;;;;;;13.01;60.39;97718.81;4825259;29;20193;-76
2021/10/22 01:07:06;;;;;;;6.70;2.85;;;;;;;12.96;60.47;97689.63;4841676;29;20552;-76
2021/10/22 01:09:32;;;;;;;2.05;1.95;;;;;;;12.88;60.84;97670.44;4795091;29;20537;-77
2021/10/22 01:11:58;;;;;;;14.60;3.72;;;;;;;12.90;60.70;97663.22;4795241;29;20108;-80
2021/10/22 01:14:24;;;;;;;2.80;2.60;;;;;;;12.88;60.42;97686.13;4825490;29;20050;-78
2021/10/22 01:16:50;;;;;;;3.33;3.13;;;;;;;12.87;60.71;97680.06;4810250;29;20062;-78
2021/10/22 01:19:17;;;;;;;13.10;4.47;;;;;;;12.85;61.08;97686.44;4824471;29;20054;-79
2021/10/22 01:21:45;;;;;;;3.78;3.53;;;;;;;12.82;60.91;97676.28;4825126;29;20064;-78
2021/10/22 01:24:12;;;;;;;3.50;2.17;;;;;;;12.78;61.50;97664.47;4841480;29;20049;-78
2021/10/22 01:26:38;;;;;;;2.10;2.00;;;;;;;12.85;60.87;97668.94;4826346;29;20058;-78
2021/10/22 01:29:04;;;;;;;7.68;3.05;;;;;;;12.84;60.87;97674.31;4853009;29;20087;-77
2021/10/22 01:31:31;;;;;;;3.20;3.00;;;;;;;12.77;61.43;97691.59;4840755;29;20054;-78
2021/10/22 01:33:57;;;;;;;1.67;1.63;;;;;;;12.75;61.43;97681.28;4835929;29;20170;-79
2021/10/22 01:36:23;;;;;;;1.20;1.20;;;;;;;12.71;61.24;97674.72;4841428;29;20042;-78
2021/10/22 01:38:50;;;;;;;7.03;4.38;;;;;;;12.67;61.16;97659.44;4824739;29;20057;-78
2021/10/22 01:41:16;;;;;;;1.95;1.85;;;;;;;12.78;61.12;97685.41;4824758;29;20058;-77
2021/10/22 01:43:44;;;;;;;6.70;4.78;;;;;;;12.72;61.46;97699.94;4824528;29;20049;-77
2021/10/22 01:46:10;;;;;;;2.47;2.38;;;;;;;12.70;61.55;97704.47;4794798;29;20110;-77
2021/10/22 01:48:37;;;;;;;2.67;2.47;;;;;;;12.75;61.42;97681.28;4825564;29;20492;-77
2021/10/22 01:51:04;;;;;;;6.75;3.88;;;;;;;12.79;61.15;97694.91;4780741;29;20050;-77
2021/10/22 01:53:30;;;;;;;11.93;3.58;;;;;;;12.72;61.27;97686.84;4794305;29;20058;-77
2021/10/22 01:55:57;;;;;;;3.00;2.28;;;;;;;12.76;61.31;97698.63;4816776;29;20516;-77
2021/10/22 01:58:23;;;;;;;3.75;3.45;;;;;;;12.72;61.31;97686.84;4842364;29;20061;-77
2021/10/22 02:00:49;;;;;;;3.72;3.25;;;;;;;12.70;61.77;97687.94;4859045;29;20053;-77
2021/10/22 02:03:15;;;;;;;8.10;4.28;;;;;;;12.78;61.11;97691.47;4842256;29;20045;-79
2021/10/22 02:05:41;;;;;;;8.20;3.40;;;;;;;12.72;61.48;97681.59;4858964;29;20076;-77
2021/10/22 02:08:08;;;;;;;2.85;2.75;;;;;;;12.71;61.33;97700.06;4859085;29;20089;-78
2021/10/22 02:10:35;;;;;;;3.85;3.50;;;;;;;12.65;61.90;97695.44;4858730;29;20054;-76
2021/10/22 02:13:02;;;;;;;3.70;3.22;;;;;;;12.66;61.97;97686.63;4812386;29;20053;-78
2021/10/22 02:15:28;;;;;;;3.17;3.00;;;;;;;12.65;62.11;97691.03;4827007;29;20060;-78
2021/10/22 02:18:33;;;;;;;4.45;2.30;;;;;;;12.63;61.88;97692.16;4859074;29;20476;-76
2021/10/22 02:21:04;;;;;;;3.38;3.17;;;;;;;12.60;62.30;97692.44;4821921;29;20094;-77
2021/10/22 02:24:31;;;;;;;2.55;2.35;;;;;;;12.62;62.37;97695.72;4811938;29;20053;-77
2021/10/22 02:27:03;;;;;;;3.65;3.45;;;;;;;12.51;62.30;97678.44;4840944;29;20807;-78
2021/10/22 02:29:30;;;;;;;1.83;1.73;;;;;;;12.52;62.53;97704.47;4841664;29;20045;-78
2021/10/22 02:32:00;;;;;;;3.38;2.97;;;;;;;12.38;62.70;97681.44;4781879;29;20077;-77
2021/10/22 02:34:33;;;;;;;2.25;2.05;;;;;;;12.52;62.60;97703.66;4843138;29;20045;-77
2021/10/22 02:36:59;;;;;;;4.20;3.83;;;;;;;12.53;62.71;97692.22;4859820;29;20084;-76
2021/10/22 02:39:25;;;;;;;1.48;1.40;;;;;;;12.61;62.15;97688.84;4841863;29;20413;-77
2021/10/22 02:41:51;;;;;;;2.05;1.95;;;;;;;12.56;62.61;97686.69;4858539;29;20125;-77
2021/10/22 02:44:18;;;;;;;8.20;4.30;;;;;;;12.46;62.93;97701.63;4858473;29;20113;-77
2021/10/22 02:46:44;;;;;;;2.90;2.70;;;;;;;12.46;63.07;97709.50;4858182;29;20053;-76
2021/10/22 02:49:10;;;;;;;2.80;2.70;;;;;;;12.45;62.79;97711.28;4858270;29;20053;-78
2021/10/22 02:51:36;;;;;;;2.20;2.10;;;;;;;12.57;62.83;97713.66;4826296;29;20052;-77
2021/10/22 02:54:02;;;;;;;2.00;2.00;;;;;;;12.53;62.76;97698.25;4858382;29;20109;-77
2021/10/22 02:56:28;;;;;;;13.50;3.35;;;;;;;12.62;62.73;97700.97;4841312;29;20045;-77
2021/10/22 02:58:56;;;;;;;2.40;2.13;;;;;;;12.59;62.77;97709.13;4858462;29;20103;-79
2021/10/22 03:01:22;;;;;;;5.82;3.88;;;;;;;12.57;62.60;97711.03;4826345;29;20107;-76
2021/10/22 03:03:48;;;;;;;3.65;3.35;;;;;;;12.57;62.74;97690.09;4858042;29;20053;-78
2021/10/22 03:06:14;;;;;;;2.67;2.58;;;;;;;12.68;62.21;97701.19;4841432;29;20428;-77
2021/10/22 03:08:41;;;;;;;2.08;1.98;;;;;;;12.67;62.17;97686.44;4857568;29;20053;-77
2021/10/22 03:11:07;;;;;;;2.70;2.55;;;;;;;12.70;62.25;97701.03;4841354;29;20053;-77
2021/10/22 03:13:34;;;;;;;14.25;2.75;;;;;;;12.67;62.61;97698.72;4857485;29;20087;-77
2021/10/22 03:16:01;;;;;;;19.63;3.88;;;;;;;12.60;62.69;97692.44;4858107;29;20137;-78
2021/10/22 03:18:27;;;;;;;2.40;2.25;;;;;;;12.52;62.91;97696.63;4810634;29;20141;-77
2021/10/22 03:20:53;;;;;;;2.42;2.22;;;;;;;12.54;62.86;97689.44;4841189;29;20121;-77
2021/10/22 03:23:19;;;;;;;5.60;4.28;;;;;;;12.47;62.65;97677.94;4826517;29;20057;-78
2021/10/22 03:25:45;;;;;;;3.60;3.28;;;;;;;12.52;62.84;97688.78;4858465;29;20535;-78
2021/10/22 03:28:11;;;;;;;2.90;2.70;;;;;;;12.59;62.68;97683.78;4826341;29;20121;-78
2021/10/22 03:30:37;;;;;;;2.95;2.75;;;;;;;12.49;63.21;97681.22;4857464;29;20512;-76
2021/10/22 03:33:04;;;;;;;2.85;2.60;;;;;;;12.58;62.84;97682.13;4841084;29;20064;-78
2021/10/22 03:35:30;;;;;;;2.85;2.75;;;;;;;12.57;62.81;97675.22;4857337;29;20520;-76
2021/10/22 03:37:57;;;;;;;4.90;3.20;;;;;;;12.54;62.84;97686.00;4840815;29;20516;-77
2021/10/22 03:40:23;;;;;;;3.83;3.63;;;;;;;12.51;63.07;97691.53;4840479;29;20041;-76
2021/10/22 03:42:53;;;;;;;4.80;4.35;;;;;;;12.56;63.08;97701.56;4856938;29;20104;-76
2021/10/22 03:45:19;;;;;;;7.50;2.28;;;;;;;12.56;63.06;97702.41;4825860;29;20053;-77
2021/10/22 03:47:45;;;;;;;3.47;3.28;;;;;;;12.53;63.39;97702.69;4857399;29;20069;-77
2021/10/22 03:50:13;;;;;;;2.92;2.72;;;;;;;12.52;63.27;97696.63;4840729;29;20049;-77
2021/10/22 03:52:40;;;;;;;4.18;3.10;;;;;;;12.57;62.85;97682.25;4857029;29;20133;-77
2021/10/22 03:55:06;;;;;;;5.07;3.50;;;;;;;12.50;63.24;97682.84;4855619;29;20464;-77
2021/10/22 03:57:32;;;;;;;8.75;5.88;;;;;;;12.46;63.55;97683.31;4807168;29;20061;-77
2021/10/22 04:00:00;;;;;;;1.80;1.70;;;;;;;12.41;63.53;97688.16;4838943;29;20069;-78
2021/10/22 04:02:26;;;;;;;26.35;3.50;;;;;;;12.38;63.88;97697.13;4822254;29;20054;-76
2021/10/22 04:04:53;;;;;;;2.33;2.22;;;;;;;12.52;62.90;97686.16;4807539;29;20050;-77
2021/10/22 04:07:19;;;;;;;4.25;3.95;;;;;;;12.50;63.25;97693.31;4807475;29;20568;-75
2021/10/22 04:09:47;;;;;;;3.97;3.72;;;;;;;12.48;63.28;97700.50;4838899;29;20041;-78
2021/10/22 04:12:14;;;;;;;2.65;2.55;;;;;;;12.51;63.42;97697.59;4792839;29;20149;-78
2021/10/22 04:14:42;;;;;;;6.55;3.65;;;;;;;12.32;63.36;97675.97;4777995;29;20253;-78
2021/10/22 04:17:08;;;;;;;2.22;2.13;;;;;;;12.40;63.99;97703.03;4777058;29;20046;-76
2021/10/22 04:19:34;;;;;;;3.08;2.55;;;;;;;12.34;64.08;97703.63;4791923;29;20064;-77
2021/10/22 04:22:00;;;;;;;10.52;2.95;;;;;;;12.34;64.05;97711.47;4838518;29;20478;-77
2021/10/22 04:24:26;;;;;;;8.48;4.25;;;;;;;12.32;64.07;97696.91;4821924;29;20060;-76
2021/10/22 04:26:52;;;;;;;2.20;2.10;;;;;;;12.38;63.61;97712.84;4807217;29;20060;-76
2021/10/22 04:29:18;;;;;;;2.78;2.60;;;;;;;12.22;64.28;97689.13;4792349;29;20058;-77
2021/10/22 04:31:44;;;;;;;11.20;4.13;;;;;;;12.38;63.49;97689.28;4806729;29;20528;-78
2021/10/22 04:34:11;;;;;;;3.33;3.13;;;;;;;12.44;63.54;97682.63;4777090;29;20057;-79
2021/10/22 04:36:38;;;;;;;4.03;3.67;;;;;;;12.46;63.91;97694.63;4821638;29;20083;-78
2021/10/22 04:41:50;;;;;;;2.78;2.60;;;;;;;12.36;63.74;97675.53;4810130;29;20054;-77
2021/10/22 04:44:16;;;;;;;2.95;2.85;;;;;;;12.31;63.96;97682.19;4793110;29;20069;-78
2021/10/22 04:46:42;;;;;;;7.63;3.25;;;;;;;12.35;63.90;97689.59;4831198;29;20058;-78
2021/10/22 04:49:08;;;;;;;3.05;2.85;;;;;;;12.44;63.86;97695.72;4835944;29;20079;-78
2021/10/22 04:51:34;;;;;;;4.90;4.47;;;;;;;12.55;63.51;97692.88;4832198;29;20137;-77
2021/10/22 04:54:00;;;;;;;4.20;3.92;;;;;;;12.52;63.61;97691.41;4841913;29;20062;-77
2021/10/22 04:56:27;;;;;;;2.58;2.42;;;;;;;12.40;63.64;97687.34;4823610;29;20060;-78
2021/10/22 04:58:53;;;;;;;3.10;2.88;;;;;;;12.42;63.88;97695.88;4800075;29;20062;-78
2021/10/22 05:01:19;;;;;;;2.30;2.10;;;;;;;12.48;64.15;97710.16;4844541;29;20057;-76
2021/10/22 05:03:46;;;;;;;2.90;2.80;;;;;;;12.51;63.86;97720.31;4840361;29;20057;-78
2021/10/22 05:06:12;;;;;;;3.75;3.40;;;;;;;12.48;64.18;97713.59;4842712;29;20145;-79
2021/10/22 05:08:43;;;;;;;2.33;2.22;;;;;;;12.54;63.94;97722.63;4829420;29;20061;-75
2021/10/22 05:11:09;;;;;;;2.97;2.72;;;;;;;12.54;63.76;97730.50;4839628;29;20050;-76
2021/10/22 05:13:35;;;;;;;2.17;2.10;;;;;;;12.43;63.73;97718.44;4823006;29;20058;-78
2021/10/22 05:16:01;;;;;;;6.53;3.45;;;;;;;12.57;63.64;97729.38;4838716;29;20406;-79
2021/10/22 05:18:29;;;;;;;4.93;2.90;;;;;;;12.69;63.55;97712.50;4840539;29;20119;-80
2021/10/22 05:20:55;;;;;;;3.15;3.05;;;;;;;13.80;59.81;97713.47;4808693;29;20080;-79
2021/10/22 05:23:21;;;;;;;4.40;3.97;;;;;;;13.93;59.26;97728.75;4820474;29;20509;-77
2021/10/22 05:25:47;;;;;;;3.78;3.50;;;;;;;14.15;58.49;97720.31;4858680;29;20046;-79
2021/10/22 05:28:12;;;;;;;2.17;2.08;;;;;;;14.32;57.70;97732.50;4842288;29;20056;-76
2021/10/22 05:30:39;;;;;;;4.20;3.80;;;;;;;14.43;57.59;97723.56;4858678;29;20092;-77
2021/10/22 05:33:05;;;;;;;3.30;2.92;;;;;;;14.78;56.13;97725.91;4858677;29;20436;-78
2021/10/22 05:35:31;;;;;;;2.90;2.67;;;;;;;14.42;57.48;97706.97;4858764;29;20045;-78
2021/10/22 05:37:57;;;;;;;3.47;3.28;;;;;;;13.91;59.41;97714.97;4857187;29;20054;-77
2021/10/22 05:40:23;;;;;;;2.65;2.45;;;;;;;13.65;60.09;97722.03;4848389;29;20081;-77
2021/10/22 05:42:49;;;;;;;2.78;2.58;;;;;;;14.12;58.72;97735.56;4811146;29;20456;-78
2021/10/22 05:45:15;;;;;;;3.42;3.15;;;;;;;13.84;59.73;97727.88;4856165;29;20053;-77
2021/10/22 05:47:41;;;;;;;3.58;3.35;;;;;;;13.57;60.57;97726.28;4860048;29;20054;-76
2021/10/22 05:50:09;;;;;;;1.80;1.73;;;;;;;13.51;60.65;97729.50;4858626;29;20052;-75
2021/10/22 05:52:36;;;;;;;3.90;3.67;;;;;;;13.47;60.42;97720.31;4858351;29;20597;-77
2021/10/22 05:55:02;;;;;;;3.28;3.08;;;;;;;13.54;60.55;97729.22;4858761;29;20091;-78
2021/10/22 05:57:28;;;;;;;6.75;3.50;;;;;;;14.45;58.03;97743.41;4858203;29;20101;-78
2021/10/22 05:59:54;;;;;;;3.63;3.42;;;;;;;14.89;56.58;97745.75;4839798;29;20061;-76
2021/10/22 06:02:21;;;;;;;2.30;2.20;;;;;;;13.87;59.78;97750.38;4823500;29;20797;-76
2021/10/22 06:04:47;;;;;;;3.25;2.55;;;;;;;13.53;60.70;97753.78;4823131;29;20902;-76
2021/10/22 06:07:13;;;;;;;3.42;3.13;;;;;;;13.48;60.96;97745.53;4836944;29;20056;-79
2021/10/22 06:09:39;;;;;;;5.95;2.58;;;;;;;13.47;61.05;97756.19;4830132;29;20054;-78
2021/10/22 06:12:05;;;;;;;3.03;2.78;;;;;;;13.37;61.86;97755.47;4837309;29;20738;-78
2021/10/22 06:14:32;;;;;;;6.20;2.97;;;;;;;13.40;61.40;97750.75;4836012;29;20114;-78
2021/10/22 06:16:58;;;;;;;3.05;2.78;;;;;;;13.40;61.23;97750.75;4820387;29;20053;-79
2021/10/22 06:19:29;;;;;;;2.90;2.70;;;;;;;13.38;61.64;97763.16;4820804;29;20054;-81
2021/10/22 06:22:10;;;;;;;2.28;1.83;;;;;;;13.29;61.36;97774.56;4838006;29;20152;-79
2021/10/22 06:24:37;;;;;;;2.53;2.42;;;;;;;13.21;61.30;97771.91;4781299;29;20054;-78
2021/10/22 06:27:03;;;;;;;4.75;3.30;;;;;;;13.15;61.42;97776.91;4823156;29;20058;-78
2021/10/22 06:29:31;;;;;;;2.58;2.47;;;;;;;13.98;58.62;97776.31;4822160;29;20092;-78
2021/10/22 06:31:57;;;;;;;2.55;2.35;;;;;;;14.79;55.66;97776.66;4837826;29;20062;-77
2021/10/22 06:34:26;;;;;;;1.58;1.58;;;;;;;14.95;55.28;97785.34;4820656;29;20530;-79
2021/10/22 06:36:53;;;;;;;3.10;2.90;;;;;;;15.71;52.66;97776.31;4838840;29;20521;-79
2021/10/22 06:39:19;;;;;;;2.90;2.45;;;;;;;15.62;52.87;97786.88;4822790;29;20046;-78
2021/10/22 06:41:45;;;;;;;24.60;2.90;;;;;;;15.06;54.32;97778.97;4821918;29;20414;-79
2021/10/22 06:44:17;;;;;;;3.55;2.53;;;;;;;15.32;53.10;97774.38;4822700;29;20491;-78
2021/10/22 06:46:43;;;;;;;3.00;2.80;;;;;;;15.84;51.91;97784.53;4791345;29;20081;-78
2021/10/22 06:49:10;;;;;;;2.28;2.17;;;;;;;15.86;51.18;97783.38;4838083;29;20064;-79
2021/10/22 06:51:36;;;;;;;2.08;1.98;;;;;;;16.04;50.75;97785.78;4823376;29;20045;-78
2021/10/22 06:54:02;;;;;;;3.20;2.95;;;;;;;16.09;50.18;97794.84;4840079;29;20054;-78
2021/10/22 06:56:29;;;;;;;2.50;1.60;;;;;;;15.35;52.52;97784.56;4816991;29;20058;-79
2021/10/22 06:58:55;;;;;;;2.53;2.17;;;;;;;15.44;51.87;97788.84;4838419;29;20056;-78
2021/10/22 07:01:21;;;;;;;9.07;1.98;;;;;;;15.14;52.99;97802.63;4838475;29;20211;-78
2021/10/22 07:03:47;;;;;;;6.82;2.00;;;;;;;15.63;50.98;97799.03;4838093;29;20061;-78
2021/10/22 07:08:58;;;;;;;2.38;2.17;;;;;;;14.65;52.43;97796.47;4839632;29;20118;-78
2021/10/22 07:11:25;;;;;;;1.70;1.38;;;;;;;14.11;54.40;97805.56;4838247;29;20109;-78
2021/10/22 07:13:53;;;;;;;1.85;1.67;;;;;;;14.08;54.32;97787.53;4837898;29;20054;-79
2021/10/22 07:16:19;;;;;;;1.48;1.48;;;;;;;13.88;55.18;97820.19;4837492;29;20060;-79
2021/10/22 07:18:46;;;;;;;0.82;0.82;;;;;;;13.79;54.23;97823.75;4839116;29;20536;-77
2021/10/22 07:21:14;;;;;;;2.15;1.58;;;;;;;14.84;51.10;97816.38;4838606;29;20053;-79
2021/10/22 07:23:42;;;;;;;0.60;0.60;;;;;;;14.05;53.13;97817.53;4839285;29;20513;-79
2021/10/22 07:26:09;;;;;;;0.98;0.98;;;;;;;13.57;53.80;97820.66;4808240;29;20085;-77
2021/10/22 07:28:35;;;;;;;0.80;0.80;;;;;;;13.41;53.84;97836.25;4837974;29;20058;-77
2021/10/22 07:31:01;;;;;;;0.55;0.40;;;;;;;13.39;54.11;97829.50;4839398;29;20050;-78
2021/10/22 07:33:27;;;;;;;1.05;1.05;;;;;;;13.27;53.90;97823.69;4838051;29;20056;-77
2021/10/22 07:35:56;;;;;;;0.73;0.73;;;;;;;13.22;54.30;97841.63;4822892;29;20054;-79
2021/10/22 07:38:22;;;;;;;1.30;0.90;;;;;;;13.51;53.69;97859.78;4839060;29;20060;-79
2021/10/22 07:40:48;;;;;;;1.60;1.25;;;;;;;14.70;49.34;97841.44;4835728;29;20520;-80
2021/10/22 07:43:16;;;;;;;0.82;0.82;;;;;;;14.96;48.27;97875.50;4833857;29;20050;-79
2021/10/22 07:45:42;;;;;;;0.90;0.90;;;;;;;14.81;47.54;97853.47;4839250;29;20060;-79
2021/10/22 07:48:08;;;;;;;0.88;0.88;;;;;;;15.46;46.22;97818.41;4840963;29;20061;-76
2021/10/22 07:50:35;;;;;;;1.63;1.40;;;;;;;15.67;46.11;97856.59;4804608;29;20530;-77
2021/10/22 07:53:00;;;;;;;1.23;1.13;;;;;;;15.92;44.95;97840.59;4819811;29;20084;-78
2021/10/22 07:55:26;;;;;;;0.80;0.80;;;;;;;15.27;45.67;97850.28;4820897;29;20066;-77
2021/10/22 07:57:53;;;;;;;0.80;0.80;;;;;;;15.72;43.92;97844.56;4820781;29;20550;-78
2021/10/22 08:00:19;;;;;;;0.60;0.60;;;;;;;15.95;43.91;97877.13;4821192;29;20082;-76
2021/10/22 08:02:46;;;;;;;0.60;0.60;;;;;;;15.32;45.04;97839.25;4822785;29;20185;-77
2021/10/22 08:05:12;;;;;;;1.08;1.08;;;;;;;15.94;44.05;97867.56;4804654;29;20062;-78
2021/10/22 08:07:38;;;;;;;0.43;0.43;;;;;;;15.78;43.20;97858.84;4812421;29;20054;-75
2021/10/22 08:10:06;;;;;;;0.52;0.52;;;;;;;16.07;42.93;97869.69;4834359;29;20075;-77
2021/10/22 08:12:33;;;;;;;0.70;0.70;;;;;;;16.61;41.81;97858.38;4839488;29;20073;-79
2021/10/22 08:14:59;;;;;;;1.02;0.82;;;;;;;16.00;43.36;97853.72;4822641;29;20225;-78
2021/10/22 08:17:26;;;;;;;6.95;1.48;;;;;;;16.70;40.77;97853.88;4821498;29;20793;-79
2021/10/22 08:20:01;;;;;;;0.50;0.50;;;;;;;15.21;43.69;97829.91;4845350;29;20046;-79
2021/10/22 08:22:32;;;;;;;0.50;0.50;;;;;;;16.00;43.62;97876.63;4836642;29;20093;-79
2021/10/22 08:25:02;;;;;;;0.60;0.60;;;;;;;17.00;41.38;97873.34;4835230;29;20054;-79
2021/10/22 08:27:30;;;;;;;2.47;1.00;;;;;;;16.10;43.26;97879.88;4839629;29;20060;-78
2021/10/22 08:29:56;;;;;;;4.75;0.77;;;;;;;16.35;41.07;97889.38;4824630;29;20153;-80
2021/10/22 08:32:22;;;;;;;1.55;1.15;;;;;;;15.49;42.90;97854.94;4825284;29;20058;-80
2021/10/22 08:34:48;;;;;;;0.70;0.70;;;;;;;15.35;44.08;97889.72;4841176;29;20061;-79
2021/10/22 08:37:15;;;;;;;0.38;0.38;;;;;;;15.56;43.62;97871.72;4841401;29;20087;-78
2021/10/22 08:39:45;;;;;;;0.25;0.25;;;;;;;14.40;45.15;97863.81;4830739;29;20057;-86
2021/10/22 08:42:13;;;;;;;0.98;0.98;;;;;;;14.49;45.97;97883.06;4845151;29;20070;-86
2021/10/22 08:44:43;;;;;;;0.40;0.40;;;;;;;14.11;46.94;97886.91;4867290;29;20559;-85
2021/10/22 08:47:09;;;;;;;11.43;0.60;;;;;;;13.96;47.87;97898.94;4840513;29;20054;-88
2021/10/22 08:49:37;;;;;;;2.35;1.00;;;;;;;13.89;48.40;97904.00;4856919;29;20058;-81
2021/10/22 08:52:07;;;;;;;0.30;0.30;;;;;;;13.70;47.31;97877.94;4850294;29;20636;-84
2021/10/22 08:54:35;;;;;;;4.53;0.55;;;;;;;13.76;47.69;97894.88;4831606;29;20058;-80
2021/10/22 08:57:03;;;;;;;0.45;0.45;;;;;;;13.62;47.56;97885.72;4845337;29;20081;-82
2021/10/22 08:59:29;;;;;;;0.38;0.38;;;;;;;13.68;48.00;97895.63;4833434;29;20079;-82
2021/10/22 09:02:14;;;;;;;0.50;0.50;;;;;;;13.79;47.79;97892.75;4847254;29;20049;-81
2021/10/22 09:04:42;;;;;;;0.57;0.57;;;;;;;14.05;47.32;97906.72;4844068;29;20054;-83
2021/10/22 09:07:11;;;;;;;0.85;0.85;;;;;;;14.29;47.22;97877.19;4847782;29;20042;-84
2021/10/22 09:09:37;;;;;;;0.70;0.70;;;;;;;14.13;46.69;97877.09;4816484;29;20137;-85
2021/10/22 09:12:04;;;;;;;0.80;0.80;;;;;;;13.96;47.40;97868.31;4830366;29;20056;-85
2021/10/22 09:14:35;;;;;;;0.50;0.50;;;;;;;13.82;46.98;97878.50;4862519;29;20118;-85
